Time;durP1;ratioP1;P1;durP2;ratioP2;P2;SDS_P1;SDS_P2;PMS_P1;PMS_P2;Temp;Humidity;BMP_temperature;BMP_pressure;BME280_temperature;BME280_humidity;BME280_pressure;Samples;Min_cycle;Max_cycle;Signal;HPM_P1;HPM_P2
2021/12/07 00:00:27;;;;;;;29.35;18.63;;;1.90;99.90;;;;;;4976189;28;20070;-77
2021/12/07 00:02:52;;;;;;;31.75;18.75;;;1.90;99.90;;;;;;4989455;28;20039;-77
2021/12/07 00:05:18;;;;;;;29.90;18.13;;;1.90;99.90;;;;;;4982142;28;20075;-78
2021/12/07 00:07:44;;;;;;;29.30;18.67;;;1.90;99.90;;;;;;4975944;28;20047;-77
2021/12/07 00:10:11;;;;;;;29.95;19.42;;;1.90;99.90;;;;;;4973928;28;20046;-77
2021/12/07 00:12:39;;;;;;;29.20;18.77;;;1.90;99.90;;;;;;4965162;28;20038;-77
2021/12/07 00:15:07;;;;;;;29.60;19.08;;;1.90;99.90;;;;;;4986980;28;20039;-77
2021/12/07 00:17:33;;;;;;;30.60;19.48;;;1.80;99.90;;;;;;4984398;28;20039;-77
2021/12/07 00:20:00;;;;;;;27.10;18.00;;;1.80;99.90;;;;;;4967505;28;20040;-77
2021/12/07 00:22:26;;;;;;;29.13;18.37;;;1.80;99.90;;;;;;4974852;28;20055;-77
2021/12/07 00:24:52;;;;;;;28.10;18.37;;;1.80;99.90;;;;;;4984788;28;20124;-77
2021/12/07 00:27:18;;;;;;;29.55;19.50;;;1.80;99.90;;;;;;4973335;28;20046;-76
2021/12/07 00:29:43;;;;;;;26.03;17.10;;;1.80;99.90;;;;;;4975859;28;20038;-77
2021/12/07 00:32:24;;;;;;;29.30;18.50;;;1.70;99.90;;;;;;5006416;28;20038;-77
2021/12/07 00:37:22;;;;;;;28.33;18.47;;;1.60;99.90;;;;;;4991141;28;20452;-77
2021/12/07 00:39:47;;;;;;;29.87;18.63;;;1.60;99.90;;;;;;4975245;28;20109;-76
2021/12/07 00:42:13;;;;;;;27.37;17.43;;;1.60;99.90;;;;;;5004673;28;20105;-77
2021/12/07 00:44:38;;;;;;;26.50;18.43;;;1.50;99.90;;;;;;5003608;28;20053;-77
2021/12/07 00:47:04;;;;;;;28.93;18.97;;;1.50;99.90;;;;;;4982341;28;20126;-76
2021/12/07 00:49:30;;;;;;;29.10;18.90;;;1.50;99.90;;;;;;4976783;28;20078;-77
2021/12/07 00:51:55;;;;;;;28.40;18.17;;;1.50;99.90;;;;;;4972076;28;20385;-77
2021/12/07 00:54:21;;;;;;;28.00;18.23;;;1.40;99.90;;;;;;4956388;28;20042;-77
2021/12/07 00:56:47;;;;;;;27.30;17.67;;;1.30;99.90;;;;;;4972646;28;20046;-78
2021/12/07 00:59:13;;;;;;;26.47;17.70;;;1.30;99.90;;;;;;4990797;28;20076;-77
2021/12/07 01:01:38;;;;;;;26.43;17.27;;;1.20;99.90;;;;;;4991752;28;20420;-78
2021/12/07 01:04:04;;;;;;;26.17;17.57;;;1.20;99.90;;;;;;4978672;28;20523;-78
2021/12/07 01:06:45;;;;;;;27.80;17.77;;;1.10;99.90;;;;;;4989804;28;20042;-78
2021/12/07 01:09:35;;;;;;;25.77;17.00;;;1.20;99.90;;;;;;4995425;28;20035;-78
2021/12/07 01:25:53;;;;;;;26.37;16.90;;;1.00;99.90;;;;;;4986071;28;20140;-77
2021/12/07 01:28:37;;;;;;;25.13;16.73;;;1.00;99.90;;;;;;4965840;28;20039;-78
2021/12/07 01:31:20;;;;;;;24.13;16.38;;;1.00;99.90;;;;;;4982615;28;20046;-77
2021/12/07 01:39:36;;;;;;;23.37;15.73;;;1.00;99.90;;;;;;5003953;28;20047;-77
2021/12/07 01:59:52;;;;;;;22.63;16.07;;;0.90;99.90;;;;;;4972244;28;20409;-77
2021/12/07 02:02:20;;;;;;;24.60;16.70;;;0.90;99.90;;;;;;4979236;28;20039;-76
2021/12/07 02:04:46;;;;;;;24.27;16.40;;;0.90;99.90;;;;;;4976796;28;20071;-77
2021/12/07 02:07:12;;;;;;;23.97;16.10;;;0.90;99.90;;;;;;5003851;28;20070;-77
2021/12/07 02:09:41;;;;;;;23.30;15.70;;;0.90;99.90;;;;;;4978286;28;20096;-76
2021/12/07 02:12:08;;;;;;;21.80;15.47;;;0.90;99.90;;;;;;4971578;28;20043;-76
2021/12/07 02:14:34;;;;;;;23.70;16.00;;;0.90;99.90;;;;;;4972347;28;20074;-76
2021/12/07 02:17:05;;;;;;;22.23;15.17;;;0.90;99.90;;;;;;4960624;28;20070;-77
2021/12/07 02:19:30;;;;;;;22.07;15.07;;;0.90;99.90;;;;;;4979069;28;20050;-77
2021/12/07 02:21:57;;;;;;;21.93;15.23;;;1.00;99.90;;;;;;5002147;28;20039;-77
2021/12/07 02:24:25;;;;;;;23.93;16.33;;;1.00;99.90;;;;;;4970871;28;20054;-76
2021/12/07 02:26:50;;;;;;;23.13;15.93;;;0.90;99.90;;;;;;4970865;28;20127;-78
2021/12/07 02:29:18;;;;;;;24.50;16.17;;;1.00;99.90;;;;;;4987012;28;20121;-77
2021/12/07 02:31:43;;;;;;;21.90;15.10;;;1.00;99.90;;;;;;4983327;28;20042;-78
2021/12/07 02:34:10;;;;;;;23.77;15.67;;;1.00;99.90;;;;;;4987314;28;20104;-77
2021/12/07 02:36:36;;;;;;;23.33;16.30;;;0.90;99.90;;;;;;5001880;28;20511;-78
2021/12/07 02:39:06;;;;;;;24.17;16.30;;;1.00;99.90;;;;;;4986501;28;20043;-78
2021/12/07 02:41:31;;;;;;;22.67;15.13;;;1.00;99.90;;;;;;4981397;28;20125;-77
2021/12/07 02:43:57;;;;;;;23.40;15.77;;;1.00;99.90;;;;;;5003285;28;20046;-78
2021/12/07 02:46:22;;;;;;;24.33;16.10;;;1.00;99.90;;;;;;4975289;28;20519;-78
2021/12/07 02:48:48;;;;;;;25.30;16.40;;;1.00;99.90;;;;;;4986580;28;20562;-78
2021/12/07 02:51:14;;;;;;;22.90;15.57;;;1.00;99.90;;;;;;4977441;28;20038;-78
2021/12/07 02:53:39;;;;;;;23.17;15.63;;;1.00;99.90;;;;;;4970800;28;20202;-78
2021/12/07 02:56:08;;;;;;;22.50;15.33;;;1.00;99.90;;;;;;5001893;28;20039;-78
2021/12/07 02:58:36;;;;;;;24.80;16.50;;;1.00;99.90;;;;;;4972064;28;20053;-78
2021/12/07 03:01:10;;;;;;;22.93;15.57;;;1.00;99.90;;;;;;4975608;28;20045;-78
2021/12/07 03:03:55;;;;;;;19.63;13.90;;;1.10;99.90;;;;;;4976567;28;20649;-78
2021/12/07 03:27:56;;;;;;;;;;;0.90;99.90;;;;;;4974321;28;20121;-77
2021/12/07 03:30:23;;;;;;;18.83;11.90;;;0.90;99.90;;;;;;4989729;28;20539;-77
2021/12/07 03:32:48;;;;;;;18.13;12.33;;;0.90;99.90;;;;;;4978074;28;20038;-77
2021/12/07 03:35:15;;;;;;;19.60;12.67;;;0.90;99.90;;;;;;4991292;28;20050;-77
2021/12/07 03:37:41;;;;;;;16.93;11.70;;;0.90;99.90;;;;;;4975967;28;20035;-77
2021/12/07 03:40:09;;;;;;;20.23;12.77;;;0.80;99.90;;;;;;5009062;28;20551;-77
2021/12/07 03:42:34;;;;;;;20.03;12.97;;;0.80;99.90;;;;;;4986165;28;20452;-77
2021/12/07 03:45:00;;;;;;;20.17;13.23;;;0.80;99.90;;;;;;4973404;28;20043;-77
2021/12/07 03:47:26;;;;;;;19.60;12.70;;;0.70;99.90;;;;;;4986751;28;20424;-77
2021/12/07 03:49:51;;;;;;;22.47;13.20;;;0.70;99.90;;;;;;4977231;28;20053;-77
2021/12/07 03:52:17;;;;;;;18.87;13.13;;;0.70;99.90;;;;;;5008713;28;20034;-77
2021/12/07 03:54:42;;;;;;;20.80;13.47;;;0.70;99.90;;;;;;4975501;28;20097;-77
2021/12/07 03:57:08;;;;;;;19.40;12.67;;;0.70;99.90;;;;;;4979180;28;20030;-77
2021/12/07 03:59:34;;;;;;;17.97;12.13;;;0.70;99.90;;;;;;4973146;28;20089;-77
2021/12/07 04:02:00;;;;;;;19.17;12.37;;;0.70;99.90;;;;;;4976452;28;20496;-76
2021/12/07 04:04:27;;;;;;;19.57;12.90;;;0.70;99.90;;;;;;4973442;28;20065;-76
2021/12/07 04:06:53;;;;;;;21.63;12.90;;;0.60;99.90;;;;;;5007537;28;20361;-77
2021/12/07 04:09:18;;;;;;;20.20;12.53;;;0.60;99.90;;;;;;4982489;28;20034;-77
2021/12/07 04:11:44;;;;;;;20.47;12.93;;;0.60;99.90;;;;;;4975077;28;20039;-77
2021/12/07 04:14:10;;;;;;;19.13;11.83;;;0.60;99.90;;;;;;4976030;28;20039;-77
2021/12/07 04:16:35;;;;;;;18.27;11.67;;;0.60;99.90;;;;;;4988431;28;20488;-77
2021/12/07 04:19:01;;;;;;;19.73;12.77;;;0.60;99.90;;;;;;5008643;28;20066;-77
2021/12/07 04:21:27;;;;;;;19.00;11.90;;;0.70;99.90;;;;;;4987198;28;20564;-77
2021/12/07 04:23:52;;;;;;;18.43;11.33;;;0.60;99.90;;;;;;4989057;28;20041;-77
2021/12/07 04:26:18;;;;;;;16.87;11.77;;;0.60;99.90;;;;;;4990777;28;20046;-77
2021/12/07 04:28:45;;;;;;;17.57;11.27;;;0.60;99.90;;;;;;4974201;28;20125;-77
2021/12/07 04:31:11;;;;;;;17.33;10.60;;;0.70;99.90;;;;;;4983063;28;20463;-77
2021/12/07 04:33:37;;;;;;;18.33;11.17;;;0.70;99.90;;;;;;4991486;28;20038;-77
2021/12/07 04:36:09;;;;;;;20.17;11.63;;;0.70;99.90;;;;;;4975239;28;20061;-76
2021/12/07 04:38:35;;;;;;;21.37;11.73;;;0.70;99.90;;;;;;4985577;28;20038;-77
2021/12/07 04:41:01;;;;;;;19.03;11.63;;;0.80;99.90;;;;;;4981466;28;20050;-77
2021/12/07 04:43:27;;;;;;;19.17;11.27;;;0.80;99.90;;;;;;4973332;28;20035;-77
2021/12/07 04:46:45;;;;;;;17.60;11.37;;;0.80;99.90;;;;;;5003723;28;20035;-77
2021/12/07 04:49:22;;;;;;;18.07;10.97;;;0.80;99.90;;;;;;4968546;28;20061;-77
2021/12/07 04:59:50;;;;;;;;;;;0.90;99.90;;;;;;4986540;28;20471;-77
2021/12/07 05:02:18;;;;;;;17.53;10.80;;;0.90;99.90;;;;;;4991019;28;19917;-77
2021/12/07 05:04:43;;;;;;;18.30;10.53;;;0.90;99.90;;;;;;4990247;28;20042;-77
2021/12/07 05:07:21;;;;;;;19.57;11.60;;;0.80;99.90;;;;;;4968927;28;20551;-77
2021/12/07 05:14:42;;;;;;;18.30;11.17;;;0.90;99.90;;;;;;4979340;28;20068;-77
2021/12/07 05:38:52;;;;;;;;;;;0.80;99.90;;;;;;5013814;28;20432;-77
2021/12/07 05:41:18;;;;;;;19.57;9.50;;;0.80;99.90;;;;;;4985191;28;19918;-77
2021/12/07 05:43:45;;;;;;;16.67;9.83;;;0.80;99.90;;;;;;4971234;28;20045;-77
2021/12/07 05:46:11;;;;;;;18.07;10.27;;;0.80;99.90;;;;;;4977855;28;20038;-77
2021/12/07 05:48:36;;;;;;;19.17;10.47;;;0.70;99.90;;;;;;4971282;28;20101;-77
2021/12/07 05:51:02;;;;;;;20.30;10.20;;;0.70;99.90;;;;;;4973134;28;20493;-77
2021/12/07 05:53:28;;;;;;;18.17;10.43;;;0.70;99.90;;;;;;4974452;28;20500;-77
2021/12/07 05:55:53;;;;;;;19.80;10.67;;;0.70;99.90;;;;;;4976832;28;20030;-77
2021/12/07 05:58:19;;;;;;;18.87;10.07;;;0.70;99.90;;;;;;4997283;28;20030;-77
2021/12/07 06:00:46;;;;;;;15.93;9.60;;;0.70;99.90;;;;;;4988095;28;20100;-79
2021/12/07 06:03:12;;;;;;;21.20;10.10;;;0.70;99.90;;;;;;4979228;28;20066;-79
2021/12/07 06:05:41;;;;;;;17.37;9.83;;;0.70;99.90;;;;;;4971728;28;20493;-79
2021/12/07 06:08:07;;;;;;;15.83;9.30;;;0.80;99.90;;;;;;5006649;28;20042;-76
2021/12/07 06:10:33;;;;;;;21.83;9.30;;;0.80;99.90;;;;;;4989536;28;20476;-76
2021/12/07 06:12:59;;;;;;;17.50;8.60;;;0.80;99.90;;;;;;4974150;28;20034;-76
2021/12/07 06:15:30;;;;;;;21.07;9.10;;;0.80;99.90;;;;;;4988030;28;20188;-76
2021/12/07 06:17:56;;;;;;;20.70;8.67;;;0.90;99.90;;;;;;4984595;28;20084;-76
2021/12/07 06:20:22;;;;;;;15.27;8.53;;;0.80;99.90;;;;;;4981618;28;20117;-76
2021/12/07 06:22:48;;;;;;;16.80;9.27;;;0.80;99.90;;;;;;4972343;28;20047;-77
2021/12/07 06:25:13;;;;;;;17.13;8.70;;;0.90;99.90;;;;;;4983248;28;20045;-78
2021/12/07 06:27:40;;;;;;;17.67;8.37;;;0.90;99.90;;;;;;4982615;28;20125;-76
2021/12/07 06:30:09;;;;;;;14.33;8.60;;;0.80;99.90;;;;;;4990419;28;20046;-77
2021/12/07 06:32:34;;;;;;;18.50;8.33;;;0.90;99.90;;;;;;4980797;28;20165;-72
2021/12/07 06:35:00;;;;;;;18.10;9.00;;;0.80;99.90;;;;;;4975219;28;20460;-77
2021/12/07 06:37:26;;;;;;;18.77;8.23;;;0.80;99.90;;;;;;4982353;28;20038;-77
2021/12/07 06:39:51;;;;;;;18.57;9.13;;;0.90;99.90;;;;;;4993988;28;20074;-77
2021/12/07 06:42:17;;;;;;;20.07;9.10;;;0.90;99.90;;;;;;4981304;28;20424;-77
2021/12/07 06:44:43;;;;;;;14.17;7.23;;;0.80;99.90;;;;;;4979951;28;20042;-77
2021/12/07 06:47:09;;;;;;;16.57;7.70;;;0.80;99.90;;;;;;4978490;28;20042;-77
2021/12/07 06:49:35;;;;;;;21.57;9.17;;;0.80;99.90;;;;;;4978652;28;20134;-76
2021/12/07 06:52:02;;;;;;;15.53;7.80;;;0.80;99.90;;;;;;5006912;28;20129;-77
2021/12/07 06:54:28;;;;;;;15.77;8.27;;;0.80;99.90;;;;;;4990382;28;20031;-77
2021/12/07 06:56:53;;;;;;;21.00;7.97;;;0.90;99.90;;;;;;5006743;28;20420;-77
2021/12/07 06:59:19;;;;;;;20.23;8.97;;;0.90;99.90;;;;;;5007138;28;20046;-77
2021/12/07 07:01:46;;;;;;;15.87;8.90;;;0.90;99.90;;;;;;5007130;28;20086;-76
2021/12/07 07:04:13;;;;;;;15.27;8.07;;;0.90;99.90;;;;;;4973936;28;20465;-77
2021/12/07 07:06:40;;;;;;;15.90;8.37;;;0.90;99.90;;;;;;5005743;28;20045;-77
2021/12/07 07:09:06;;;;;;;22.40;9.10;;;0.90;99.90;;;;;;5005284;28;20058;-77
2021/12/07 07:11:32;;;;;;;16.50;9.00;;;0.90;99.90;;;;;;4974216;28;20035;-77
2021/12/07 07:13:58;;;;;;;16.73;9.27;;;0.90;99.90;;;;;;5006961;28;20057;-77
2021/12/07 07:16:23;;;;;;;20.07;8.30;;;0.90;99.90;;;;;;4994295;28;20074;-77
2021/12/07 07:18:49;;;;;;;21.57;8.63;;;0.90;99.90;;;;;;5009333;28;20042;-77
2021/12/07 07:21:15;;;;;;;16.50;8.70;;;0.90;99.90;;;;;;4993508;28;20113;-77
2021/12/07 07:23:40;;;;;;;20.70;9.00;;;0.90;99.90;;;;;;4990876;28;20037;-77
2021/12/07 07:26:07;;;;;;;19.90;8.53;;;1.00;99.90;;;;;;4989378;28;20440;-77
2021/12/07 07:28:33;;;;;;;17.43;8.30;;;0.90;99.90;;;;;;5001667;28;20108;-77
2021/12/07 07:31:01;;;;;;;18.43;8.93;;;0.90;99.90;;;;;;4992206;28;20034;-77
2021/12/07 07:33:27;;;;;;;16.80;8.73;;;0.90;99.90;;;;;;4976501;28;20381;-77
2021/12/07 07:35:53;;;;;;;14.33;8.37;;;0.90;99.90;;;;;;4990462;28;21400;-79
2021/12/07 07:38:20;;;;;;;18.97;8.63;;;0.90;99.90;;;;;;4986462;28;20103;-79
2021/12/07 07:40:46;;;;;;;18.63;9.40;;;0.80;99.90;;;;;;4989258;28;20126;-80
2021/12/07 07:43:17;;;;;;;19.77;8.97;;;0.90;99.90;;;;;;4982391;28;20411;-79
2021/12/07 07:45:44;;;;;;;20.97;8.70;;;0.80;99.90;;;;;;4980775;28;20061;-80
2021/12/07 07:48:10;;;;;;;20.20;9.20;;;0.80;99.90;;;;;;4992180;28;20054;-80
2021/12/07 07:50:36;;;;;;;17.40;9.10;;;0.80;99.90;;;;;;4975966;28;20043;-80
2021/12/07 07:53:02;;;;;;;16.47;8.30;;;0.80;99.90;;;;;;4992780;28;20404;-78
2021/12/07 07:55:28;;;;;;;24.20;8.67;;;0.80;99.90;;;;;;4992015;28;20492;-77
2021/12/07 07:57:53;;;;;;;20.30;8.53;;;0.80;99.90;;;;;;4981800;28;20169;-77
2021/12/07 08:00:21;;;;;;;21.53;9.17;;;0.80;99.90;;;;;;4979165;28;20066;-77
2021/12/07 08:02:47;;;;;;;22.23;8.60;;;0.80;99.90;;;;;;4985455;28;20786;-77
2021/12/07 08:05:14;;;;;;;21.53;8.30;;;0.80;99.90;;;;;;4988969;28;20042;-77
2021/12/07 08:07:41;;;;;;;22.07;8.73;;;0.80;99.90;;;;;;4988128;28;20070;-77
2021/12/07 08:10:08;;;;;;;17.43;7.63;;;0.80;99.90;;;;;;4987049;28;20034;-77
2021/12/07 08:12:35;;;;;;;17.07;8.13;;;0.80;99.90;;;;;;5006500;28;20511;-77
2021/12/07 08:15:02;;;;;;;21.23;8.50;;;0.80;99.90;;;;;;5005570;28;20045;-77
2021/12/07 08:17:28;;;;;;;18.60;8.13;;;0.80;99.90;;;;;;4989424;28;20609;-77
2021/12/07 08:19:53;;;;;;;21.03;9.47;;;0.80;99.90;;;;;;4985552;28;20066;-77
2021/12/07 08:22:19;;;;;;;18.43;8.07;;;0.90;99.90;;;;;;4990578;28;20093;-77
2021/12/07 08:24:45;;;;;;;14.80;8.03;;;0.90;99.90;;;;;;4977923;28;20034;-77
2021/12/07 08:27:11;;;;;;;19.30;7.90;;;0.90;99.90;;;;;;4984963;28;20042;-78
2021/12/07 08:29:37;;;;;;;16.53;7.93;;;1.00;99.90;;;;;;4983241;28;20038;-77
2021/12/07 08:32:03;;;;;;;21.10;8.23;;;1.00;99.90;;;;;;4980752;28;20066;-78
2021/12/07 08:34:28;;;;;;;18.90;7.83;;;1.00;99.90;;;;;;4971404;28;20412;-77
2021/12/07 08:36:54;;;;;;;20.40;8.50;;;1.00;99.90;;;;;;4970762;28;20069;-77
2021/12/07 08:39:19;;;;;;;19.60;8.47;;;1.00;99.90;;;;;;4976489;28;20042;-77
2021/12/07 08:41:45;;;;;;;12.97;7.10;;;1.10;99.90;;;;;;4972681;28;20050;-77
2021/12/07 08:44:11;;;;;;;17.40;7.83;;;1.10;99.90;;;;;;4971478;28;20043;-77
2021/12/07 08:46:37;;;;;;;17.97;7.07;;;1.00;99.90;;;;;;4970739;28;20043;-77
2021/12/07 08:49:03;;;;;;;17.30;7.13;;;1.10;99.90;;;;;;4972149;28;20053;-77
2021/12/07 08:51:29;;;;;;;17.77;6.63;;;1.10;99.90;;;;;;4989838;28;20416;-77
2021/12/07 08:54:15;;;;;;;15.83;7.37;;;1.10;99.90;;;;;;4992221;28;20042;-77
2021/12/07 09:02:11;;;;;;;;;;;1.20;99.90;;;;;;4972000;28;20051;-78
2021/12/07 09:04:36;;;;;;;13.93;5.90;;;1.30;99.90;;;;;;4971763;28;19925;-78
2021/12/07 09:07:04;;;;;;;15.93;6.10;;;1.40;99.90;;;;;;4981349;28;20046;-78
2021/12/07 09:09:30;;;;;;;19.00;7.77;;;1.40;99.90;;;;;;4990356;28;20117;-78
2021/12/07 09:11:56;;;;;;;18.83;6.67;;;1.50;99.90;;;;;;4980866;28;20126;-79
2021/12/07 09:14:23;;;;;;;15.00;6.33;;;1.60;99.90;;;;;;5001574;28;20110;-79
2021/12/07 09:16:48;;;;;;;13.87;6.10;;;1.60;99.90;;;;;;4988465;28;20101;-77
2021/12/07 09:19:14;;;;;;;17.80;6.83;;;1.60;99.90;;;;;;5004432;28;20488;-78
2021/12/07 09:21:41;;;;;;;16.00;6.30;;;1.60;99.90;;;;;;4971419;28;20046;-78
2021/12/07 09:24:06;;;;;;;16.20;6.20;;;1.60;99.90;;;;;;4971793;28;20412;-78
2021/12/07 09:26:33;;;;;;;13.70;6.17;;;1.70;99.90;;;;;;4982631;28;20083;-78
2021/12/07 09:28:58;;;;;;;16.33;6.67;;;1.70;99.90;;;;;;4987166;28;20141;-78
2021/12/07 09:31:24;;;;;;;17.93;6.40;;;1.80;99.90;;;;;;4983099;28;20058;-78
2021/12/07 09:33:49;;;;;;;19.97;8.23;;;1.80;99.90;;;;;;4979823;28;20046;-78
2021/12/07 09:36:15;;;;;;;16.90;7.30;;;1.90;99.90;;;;;;4971638;28;20043;-78
2021/12/07 09:38:42;;;;;;;20.67;7.40;;;1.90;99.90;;;;;;4959934;28;20042;-78
2021/12/07 09:41:09;;;;;;;22.63;7.10;;;2.00;99.90;;;;;;4991532;28;20031;-77
2021/12/07 09:43:36;;;;;;;18.83;7.63;;;2.00;99.90;;;;;;5002859;28;20086;-78
2021/12/07 09:46:04;;;;;;;16.27;6.73;;;2.00;99.90;;;;;;4984510;28;20467;-78
2021/12/07 09:48:30;;;;;;;18.23;7.45;;;2.10;99.90;;;;;;4978198;28;20408;-78
2021/12/07 09:50:56;;;;;;;14.43;6.33;;;2.20;99.90;;;;;;4955625;28;20050;-77
2021/12/07 09:53:24;;;;;;;20.30;7.18;;;2.30;99.90;;;;;;4971168;28;20055;-78
2021/12/07 09:55:51;;;;;;;17.85;6.85;;;2.40;99.90;;;;;;4971445;28;20047;-77
2021/12/07 09:58:17;;;;;;;21.63;6.97;;;2.50;99.90;;;;;;4984272;28;20041;-78
2021/12/07 10:00:46;;;;;;;17.77;6.68;;;2.50;99.90;;;;;;4994321;28;20489;-77
2021/12/07 10:03:12;;;;;;;15.87;6.73;;;2.50;99.90;;;;;;4977651;28;20042;-77
2021/12/07 10:05:40;;;;;;;19.27;6.40;;;2.60;99.90;;;;;;4988057;28;20404;-77
2021/12/07 10:08:07;;;;;;;14.52;6.70;;;2.60;99.90;;;;;;4961927;28;20130;-77
2021/12/07 10:10:46;;;;;;;20.92;6.15;;;2.60;99.90;;;;;;4974968;28;20042;-77
2021/12/07 10:13:14;;;;;;;14.18;6.85;;;2.70;99.90;;;;;;4974767;28;20042;-77
2021/12/07 10:15:42;;;;;;;17.52;5.78;;;2.70;99.90;;;;;;4982979;28;20039;-77
2021/12/07 10:18:13;;;;;;;20.08;6.07;;;2.80;99.90;;;;;;4984272;28;20043;-77
2021/12/07 10:20:45;;;;;;;17.25;6.10;;;2.90;99.90;;;;;;4993861;28;20048;-78
2021/12/07 10:23:13;;;;;;;20.98;6.63;;;3.00;99.90;;;;;;4991945;28;20108;-77
2021/12/07 10:25:40;;;;;;;16.35;5.97;;;3.10;99.90;;;;;;4976620;28;20046;-77
2021/12/07 10:28:37;;;;;;;14.65;5.95;;;3.20;99.90;;;;;;4979200;28;20428;-79
2021/12/07 10:31:15;;;;;;;19.00;6.75;;;3.30;99.90;;;;;;4980821;28;20110;-77
2021/12/07 10:33:57;;;;;;;13.77;5.68;;;3.50;99.90;;;;;;5008026;28;20510;-77
2021/12/07 10:36:28;;;;;;;13.68;5.53;;;3.60;99.90;;;;;;4980302;28;20031;-77
2021/12/07 10:38:58;;;;;;;16.38;6.18;;;3.70;99.90;;;;;;4988171;28;20170;-78
2021/12/07 10:41:25;;;;;;;20.42;6.65;;;3.80;99.90;;;;;;4990977;28;20051;-77
2021/12/07 10:44:04;;;;;;;16.23;6.82;;;3.90;99.90;;;;;;4987348;28;20061;-77
2021/12/07 10:46:36;;;;;;;17.40;5.70;;;3.90;99.90;;;;;;5013558;28;20042;-77
2021/12/07 10:49:19;;;;;;;21.70;6.13;;;4.00;99.90;;;;;;4978362;28;20046;-78
2021/12/07 10:52:07;;;;;;;15.13;5.47;;;4.00;99.90;;;;;;4974718;28;20382;-77
2021/12/07 10:54:43;;;;;;;14.05;5.18;;;4.00;99.90;;;;;;4981241;28;20439;-78
2021/12/07 10:57:13;;;;;;;17.83;5.60;;;3.90;99.90;;;;;;4982182;28;20031;-77
2021/12/07 10:59:40;;;;;;;18.17;5.70;;;4.00;99.90;;;;;;4957233;28;20070;-77
2021/12/07 11:02:16;;;;;;;13.85;5.97;;;4.10;99.90;;;;;;4984256;28;20038;-77
2021/12/07 11:04:43;;;;;;;18.75;5.35;;;4.20;99.90;;;;;;4995304;28;20050;-77
2021/12/07 11:07:30;;;;;;;16.60;6.18;;;4.30;99.90;;;;;;4987449;28;20122;-77
2021/12/07 11:13:18;;;;;;;16.90;5.82;;;4.50;99.90;;;;;;4973879;28;20053;-77
2021/12/07 11:15:52;;;;;;;11.85;5.85;;;4.70;99.90;;;;;;4979610;28;20043;-76
2021/12/07 11:18:23;;;;;;;18.90;5.72;;;4.70;99.90;;;;;;4963696;28;20038;-77
2021/12/07 11:20:48;;;;;;;14.70;6.38;;;4.60;99.90;;;;;;4978386;28;20391;-77
2021/12/07 11:23:22;;;;;;;13.00;5.60;;;4.60;99.90;;;;;;5005933;28;20053;-79
2021/12/07 11:31:30;;;;;;;14.85;5.53;;;4.70;99.90;;;;;;4981928;28;20137;-76
2021/12/07 11:34:10;;;;;;;20.67;5.10;;;4.70;99.90;;;;;;4978614;28;20042;-76
2021/12/07 11:36:49;;;;;;;11.23;5.15;;;4.80;99.90;;;;;;4979827;28;20104;-76
2021/12/07 11:39:20;;;;;;;10.90;4.65;;;4.90;99.90;;;;;;4986680;28;20038;-76
2021/12/07 11:41:51;;;;;;;14.40;5.43;;;5.00;99.90;;;;;;4988951;28;20061;-76
2021/12/07 11:44:19;;;;;;;15.60;5.65;;;5.10;99.90;;;;;;4983239;28;20513;-76
2021/12/07 11:46:50;;;;;;;13.73;4.97;;;5.10;99.90;;;;;;4986834;28;20069;-76
2021/12/07 11:49:22;;;;;;;19.98;5.45;;;5.10;99.90;;;;;;4982801;28;20047;-76
2021/12/07 11:51:51;;;;;;;15.48;4.82;;;5.20;99.90;;;;;;5003610;28;20120;-76
2021/12/07 11:54:18;;;;;;;12.35;5.30;;;5.20;99.90;;;;;;4987532;28;20035;-76
2021/12/07 11:56:45;;;;;;;12.82;4.50;;;5.30;99.90;;;;;;5001255;28;20034;-76
2021/12/07 11:59:12;;;;;;;11.05;4.72;;;5.30;99.90;;;;;;4984957;28;20046;-76
2021/12/07 12:01:39;;;;;;;13.82;5.13;;;5.40;99.90;;;;;;4988067;28;20053;-76
2021/12/07 12:04:05;;;;;;;16.75;5.07;;;5.40;99.90;;;;;;4986262;28;20038;-76
2021/12/07 12:06:32;;;;;;;15.95;4.93;;;5.50;99.90;;;;;;4986911;28;20456;-76
2021/12/07 12:08:58;;;;;;;16.27;5.22;;;5.50;99.90;;;;;;4985374;28;20171;-76
2021/12/07 12:11:33;;;;;;;15.70;4.78;;;5.60;99.90;;;;;;4978457;28;20334;-75
2021/12/07 12:14:36;;;;;;;14.52;5.18;;;5.70;99.90;;;;;;4981885;28;20089;-77
2021/12/07 12:17:10;;;;;;;15.48;5.05;;;5.70;99.90;;;;;;4954537;28;20062;-76
2021/12/07 12:20:04;;;;;;;12.63;4.30;;;5.80;99.90;;;;;;4970746;28;20137;-76
2021/12/07 12:22:45;;;;;;;14.35;4.90;;;5.80;99.90;;;;;;4970558;28;20057;-76
2021/12/07 12:25:16;;;;;;;13.05;4.60;;;5.90;99.90;;;;;;4988606;28;20381;-78
2021/12/07 12:27:43;;;;;;;11.55;4.38;;;5.90;99.90;;;;;;4988957;28;20047;-77
2021/12/07 12:30:27;;;;;;;13.02;4.40;;;6.00;99.90;;;;;;4972453;28;20098;-76
2021/12/07 12:32:56;;;;;;;8.80;4.43;;;6.10;99.90;;;;;;4972463;28;20089;-77
2021/12/07 12:35:29;;;;;;;15.40;4.32;;;6.20;99.90;;;;;;4988916;28;20035;-76
2021/12/07 12:37:55;;;;;;;21.23;5.82;;;6.20;99.90;;;;;;4988783;28;20046;-76
2021/12/07 12:40:29;;;;;;;13.95;4.50;;;6.40;99.90;;;;;;4971436;28;20049;-76
2021/12/07 12:42:57;;;;;;;16.90;4.53;;;6.40;99.90;;;;;;4978692;28;20043;-77
2021/12/07 12:45:29;;;;;;;13.57;5.28;;;6.40;99.90;;;;;;4983342;28;20144;-77
2021/12/07 12:47:58;;;;;;;12.27;4.47;;;6.50;99.90;;;;;;4983003;28;20129;-77
2021/12/07 12:50:49;;;;;;;11.25;4.45;;;6.60;99.90;;;;;;4988454;28;20427;-77
2021/12/07 12:53:16;;;;;;;18.52;4.57;;;6.70;99.90;;;;;;4978878;28;20054;-77
2021/12/07 12:55:50;;;;;;;14.77;4.10;;;6.70;99.90;;;;;;4981312;28;20042;-76
2021/12/07 12:58:20;;;;;;;12.60;5.22;;;6.90;99.90;;;;;;4961112;28;20053;-77
2021/12/07 13:01:16;;;;;;;11.40;4.25;;;6.80;99.90;;;;;;4984246;28;20039;-76
2021/12/07 13:03:41;;;;;;;12.23;4.55;;;6.80;99.90;;;;;;4971599;28;20118;-77
2021/12/07 13:06:08;;;;;;;12.60;4.00;;;6.80;99.90;;;;;;4971880;28;20138;-77
2021/12/07 13:08:57;;;;;;;10.15;4.10;;;6.90;99.90;;;;;;4971916;28;20050;-76
2021/12/07 13:11:42;;;;;;;14.35;4.00;;;6.90;99.90;;;;;;4972185;28;20166;-77
2021/12/07 13:14:36;;;;;;;14.85;4.55;;;6.70;99.90;;;;;;4955538;28;20559;-77
2021/12/07 13:17:04;;;;;;;10.88;4.47;;;6.60;99.90;;;;;;4971601;28;20085;-77
2021/12/07 13:19:30;;;;;;;9.98;4.13;;;6.50;99.90;;;;;;4971754;28;20053;-77
2021/12/07 13:22:06;;;;;;;12.98;4.38;;;6.50;99.90;;;;;;4971644;28;20061;-77
2021/12/07 13:24:40;;;;;;;11.68;4.15;;;6.40;99.90;;;;;;4971641;28;20038;-77
2021/12/07 13:27:13;;;;;;;15.63;4.22;;;6.20;99.90;;;;;;4971653;28;20105;-77
2021/12/07 13:29:50;;;;;;;12.48;4.68;;;6.20;99.90;;;;;;4971680;28;20051;-77
2021/12/07 13:32:17;;;;;;;14.35;4.60;;;6.20;99.90;;;;;;4971468;28;20050;-77
2021/12/07 13:34:43;;;;;;;12.60;4.10;;;6.20;99.90;;;;;;4971593;28;20085;-77
2021/12/07 13:37:13;;;;;;;14.25;5.53;;;6.20;99.90;;;;;;4971711;28;20047;-77
2021/12/07 13:39:51;;;;;;;15.23;4.97;;;6.10;99.90;;;;;;4971571;28;20042;-77
2021/12/07 13:42:17;;;;;;;11.25;4.28;;;6.00;99.90;;;;;;4971013;28;20126;-77
2021/12/07 13:44:57;;;;;;;12.45;4.07;;;5.90;99.90;;;;;;4971625;28;20465;-77
2021/12/07 13:47:29;;;;;;;15.60;4.53;;;5.80;99.90;;;;;;4971596;28;20121;-77
2021/12/07 13:49:59;;;;;;;13.43;4.07;;;5.80;99.90;;;;;;4971377;28;20046;-77
2021/12/07 13:52:34;;;;;;;12.98;4.00;;;5.80;99.90;;;;;;4955162;28;20117;-77
2021/12/07 13:55:02;;;;;;;17.08;4.68;;;5.70;99.90;;;;;;4971220;28;20066;-77
2021/12/07 13:57:35;;;;;;;12.38;4.53;;;5.60;99.90;;;;;;4971251;28;20042;-77
2021/12/07 14:00:07;;;;;;;12.18;4.43;;;5.60;99.90;;;;;;4971426;28;20074;-78
2021/12/07 14:02:33;;;;;;;13.00;5.13;;;5.50;99.90;;;;;;4971119;28;20038;-77
2021/12/07 14:05:15;;;;;;;16.40;5.35;;;5.50;99.90;;;;;;4971382;28;20041;-77
2021/12/07 14:07:42;;;;;;;13.80;5.13;;;5.40;99.90;;;;;;4955176;28;20039;-77
2021/12/07 14:10:31;;;;;;;10.95;4.97;;;5.40;99.90;;;;;;4970819;28;20142;-77
2021/12/07 14:13:00;;;;;;;17.15;5.30;;;5.20;99.90;;;;;;4976614;28;20046;-77
2021/12/07 14:15:38;;;;;;;12.27;5.28;;;5.20;99.90;;;;;;4990721;28;20077;-77
2021/12/07 14:18:06;;;;;;;12.50;5.75;;;5.10;99.90;;;;;;4974618;28;20064;-77
2021/12/07 14:20:48;;;;;;;17.45;6.40;;;5.00;99.90;;;;;;4990616;28;20038;-78
2021/12/07 14:23:21;;;;;;;13.77;5.40;;;5.00;99.90;;;;;;4990297;28;20085;-78
2021/12/07 14:26:12;;;;;;;14.68;6.07;;;4.90;99.90;;;;;;4991135;28;20050;-79
2021/12/07 14:28:51;;;;;;;14.18;6.20;;;4.90;99.90;;;;;;4985777;28;20054;-77
2021/12/07 14:31:25;;;;;;;19.55;6.15;;;4.80;99.90;;;;;;4982734;28;20042;-78
2021/12/07 14:33:57;;;;;;;12.52;5.13;;;4.70;99.90;;;;;;4987126;28;20509;-77
2021/12/07 14:36:28;;;;;;;14.52;6.25;;;4.70;99.90;;;;;;4985378;28;20080;-77
2021/12/07 14:38:57;;;;;;;12.38;5.90;;;4.60;99.90;;;;;;4976751;28;20484;-78
2021/12/07 14:41:26;;;;;;;15.35;5.70;;;4.60;99.90;;;;;;4980957;28;20053;-77
2021/12/07 14:43:53;;;;;;;11.25;5.55;;;4.50;99.90;;;;;;4964502;28;20030;-78
2021/12/07 14:46:21;;;;;;;18.67;5.57;;;4.40;99.90;;;;;;4979736;28;20034;-77